^^
Station Historical Data
 
Daily Summary for November 30, 2022 Units:  English    Metric   Both
Daily Weekly Monthly Yearly Custom
  Current: High: Low: Average:
Temperature: 7.2 °F 10.4 °F 6.8 °F 7.8 °F
Dew Point: 5 °F 8.2 °F 4.5 °F 5.6 °F
Humidity: 90.7% 91% 90% 90%
Wind Speed: 1.8mph 4.1mph 0.9mph 2.4mph
Wind Gust: 2mph 5mph - -
WindSW - - West
Pressure: 30.10 in 30.10 in 30.06 in -
Precipitation: 0.00 in      
Historical Graphs
 
 
Tabular Data for November 30, 2022
Time Temperature Dew Point Pressure Wind Wind Speed Wind Gust Humidity Rainfall Rate (Hourly) solar
00:04 10.4 °F 8.2 °F 30.06 in NNW 2.4 mph 4 mph 91% 0.00 in 0 W/m2
00:09 9.9 °F 7.6 °F 30.06 in NNW 3.9 mph 3 mph 90.2% 0.00 in 0 W/m2
00:14 9.7 °F 7.6 °F 30.07 in North 3.4 mph 5 mph 91% 0.00 in 0 W/m2
00:19 9.7 °F 7.6 °F 30.07 in North 4 mph 5 mph 91% 0.00 in 0 W/m2
00:24 9.6 °F 7.4 °F 30.06 in WNW 2.7 mph 5 mph 90.6% 0.00 in 0 W/m2
00:29 9 °F 6.7 °F 30.06 in SSW 2.3 mph 2 mph 90% 0.00 in 0 W/m2
00:34 8.3 °F 6 °F 30.07 in NNW 2.4 mph 3 mph 90% 0.00 in 0 W/m2
00:39 7.8 °F 5.5 °F 30.07 in NW 3.5 mph 3 mph 90% 0.00 in 0 W/m2
00:44 7.5 °F 5.2 °F 30.07 in North 2.5 mph 4 mph 90.2% 0.00 in 0 W/m2
00:49 7.3 °F 5.1 °F 30.07 in NNW 2.8 mph 2 mph 90.5% 0.00 in 0 W/m2
00:54 7.3 °F 5.2 °F 30.07 in NW 3.1 mph 3 mph 90.6% 0.00 in 0 W/m2
00:59 7.3 °F 5.2 °F 30.07 in NNW 2.2 mph 4 mph 90.7% 0.00 in 0 W/m2
01:04 7.3 °F 5 °F 30.07 in NW 2.1 mph 2 mph 90% 0.00 in 0 W/m2
01:09 7.2 °F 4.8 °F 30.07 in NW 1.7 mph 2 mph 90% 0.00 in 0 W/m2
01:14 7.1 °F 4.7 °F 30.07 in NNW 3 mph 2 mph 90% 0.00 in 0 W/m2
01:19 6.9 °F 4.6 °F 30.07 in NNW 2.6 mph 3 mph 90% 0.00 in 0 W/m2
01:24 6.8 °F 4.5 °F 30.07 in West 3.5 mph 4 mph 90% 0.00 in 0 W/m2
01:29 6.8 °F 4.5 °F 30.08 in WSW 2.4 mph 4 mph 90% 0.00 in 0 W/m2
01:34 7 °F 4.8 °F 30.08 in NNW 3.3 mph 3 mph 90.8% 0.00 in 0 W/m2
01:39 7.2 °F 4.9 °F 30.08 in WNW 2.1 mph 3 mph 90.4% 0.00 in 0 W/m2
01:44 7.2 °F 4.9 °F 30.08 in NW 3.3 mph 3 mph 90.2% 0.00 in 0 W/m2
01:49 7.1 °F 4.8 °F 30.08 in WNW 2.4 mph 3 mph 90% 0.00 in 0 W/m2
01:54 7 °F 4.7 °F 30.09 in NW 3.1 mph 3 mph 90% 0.00 in 0 W/m2
01:59 7 °F 4.7 °F 30.09 in NW 4.1 mph 5 mph 90.1% 0.00 in 0 W/m2
02:04 7.2 °F 5.1 °F 30.09 in North 2.9 mph 5 mph 90.7% 0.00 in 0 W/m2
02:09 7.5 °F 5.3 °F 30.09 in NW 2.6 mph 4 mph 90.8% 0.00 in 0 W/m2
02:14 7.9 °F 5.7 °F 30.09 in NNE 3.3 mph 3 mph 91% 0.00 in 0 W/m2
02:19 8.1 °F 5.9 °F 30.09 in NW 3.5 mph 4 mph 90.5% 0.00 in 0 W/m2
02:24 8.3 °F 6.3 °F 30.09 in NNW 1.8 mph 3 mph 91% 0.00 in 0 W/m2
02:29 8.7 °F 6.6 °F 30.09 in NNW 1.6 mph 2 mph 91% 0.00 in 0 W/m2
02:34 9 °F 6.9 °F 30.09 in West 1.7 mph 3 mph 91% 0.00 in 0 W/m2
02:39 9 °F 6.7 °F 30.09 in SSW 2.5 mph 2.5 mph 90.6% 0.00 in 0 W/m2
02:44 8.6 °F 6.3 °F 30.10 in WSW 1.9 mph 3 mph 90.1% 0.00 in 0 W/m2
02:49 8.3 °F 6.1 °F 30.10 in West 2.1 mph 2 mph 90.3% 0.00 in 0 W/m2
02:54 8.1 °F 5.8 °F 30.09 in NW 2.3 mph 2 mph 90.2% 0.00 in 0 W/m2
02:59 7.9 °F 5.7 °F 30.09 in NNW 2.2 mph 2 mph 90.3% 0.00 in 0 W/m2
03:04 7.9 °F 5.8 °F 30.10 in South 3.1 mph 2.2 mph 91% 0.00 in 0 W/m2
03:09 8.1 °F 5.9 °F 30.10 in WSW 2.1 mph 1.8 mph 90.8% 0.00 in 0 W/m2
03:14 8.1 °F 5.7 °F 30.10 in West 1.9 mph 2 mph 90% 0.00 in 0 W/m2
03:19 8 °F 5.6 °F 30.10 in WNW 1.1 mph 2 mph 90% 0.00 in 0 W/m2
03:24 7.6 °F 5.3 °F 30.10 in SW 0.9 mph 2 mph 90% 0.00 in 0 W/m2
03:29 7.3 °F 5 °F 30.09 in NW 1.5 mph 2 mph 90% 0.00 in 0 W/m2
03:34 7.2 °F 4.8 °F 30.10 in NW 1.5 mph 2 mph 90% 0.00 in 0 W/m2
03:39 7 °F 4.8 °F 30.10 in WNW 1.7 mph 2 mph 90.4% 0.00 in 0 W/m2
03:44 7 °F 4.8 °F 30.10 in SW 1.1 mph 2 mph 90.4% 0.00 in 0 W/m2
03:49 7 °F 4.7 °F 30.10 in West 1.3 mph 2 mph 90.1% 0.00 in 0 W/m2
03:54 7 °F 4.7 °F 30.10 in NW 1.5 mph 2 mph 90% 0.00 in 0 W/m2
03:59 7 °F 4.9 °F 30.10 in West 2 mph 2 mph 90.8% 0.00 in 0 W/m2
04:04 7.2 °F 5 °F 30.10 in SW 1.8 mph 2 mph 90.7% 0.00 in 0 W/m2
The Lakes at Centerra, Loveland, Colorado, USA
Compliments of Weather Underground - 2 mb